sensor_id;sensor_type;location;lat;lon;timestamp;pressure;altitude;pressure_sealevel;temperature;humidity
12536;BME280;6334;48.696;2.114;2023-03-18T00:00:34;99255.77;;;10.76;81.06
12536;BME280;6334;48.696;2.114;2023-03-18T00:03:05;99245.86;;;10.92;80.43
12536;BME280;6334;48.696;2.114;2023-03-18T00:05:35;99248.56;;;10.64;81.60
12536;BME280;6334;48.696;2.114;2023-03-18T00:08:05;99255.56;;;11.05;80.29
12536;BME280;6334;48.696;2.114;2023-03-18T00:10:36;99243.77;;;10.63;80.55
12536;BME280;6334;48.696;2.114;2023-03-18T00:13:06;99259.90;;;10.99;80.83
12536;BME280;6334;48.696;2.114;2023-03-18T00:15:37;99260.31;;;10.53;81.24
12536;BME280;6334;48.696;2.114;2023-03-18T00:18:07;99255.81;;;10.46;81.20
12536;BME280;6334;48.696;2.114;2023-03-18T00:20:38;99257.58;;;10.58;80.46
12536;BME280;6334;48.696;2.114;2023-03-18T00:23:08;99262.71;;;10.77;80.46
12536;BME280;6334;48.696;2.114;2023-03-18T00:25:38;99267.52;;;10.48;80.89
12536;BME280;6334;48.696;2.114;2023-03-18T00:28:10;99273.29;;;10.66;79.98
12536;BME280;6334;48.696;2.114;2023-03-18T00:30:40;99266.66;;;10.65;80.20
12536;BME280;6334;48.696;2.114;2023-03-18T00:33:11;99264.06;;;10.45;80.34
12536;BME280;6334;48.696;2.114;2023-03-18T00:35:41;99266.09;;;10.25;81.40
12536;BME280;6334;48.696;2.114;2023-03-18T00:38:12;99268.66;;;10.26;81.32
12536;BME280;6334;48.696;2.114;2023-03-18T00:40:42;99260.29;;;10.47;81.05
12536;BME280;6334;48.696;2.114;2023-03-18T00:43:28;99265.02;;;10.25;80.92
12536;BME280;6334;48.696;2.114;2023-03-18T00:45:59;99261.23;;;10.08;81.71
12536;BME280;6334;48.696;2.114;2023-03-18T00:48:30;99260.02;;;10.18;81.47
12536;BME280;6334;48.696;2.114;2023-03-18T00:51:00;99260.78;;;10.47;79.90
12536;BME280;6334;48.696;2.114;2023-03-18T00:53:31;99262.59;;;10.42;80.14
12536;BME280;6334;48.696;2.114;2023-03-18T00:56:01;99268.02;;;10.71;79.57
12536;BME280;6334;48.696;2.114;2023-03-18T00:58:32;99265.64;;;10.26;80.38
12536;BME280;6334;48.696;2.114;2023-03-18T01:01:03;99259.52;;;10.30;80.01
12536;BME280;6334;48.696;2.114;2023-03-18T01:03:33;99264.73;;;10.46;79.29
12536;BME280;6334;48.696;2.114;2023-03-18T01:06:03;99267.54;;;10.09;80.82
12536;BME280;6334;48.696;2.114;2023-03-18T01:08:34;99258.87;;;10.10;80.60
12536;BME280;6334;48.696;2.114;2023-03-18T01:11:05;99250.68;;;10.08;81.20
12536;BME280;6334;48.696;2.114;2023-03-18T01:13:35;99253.20;;;10.29;80.27
12536;BME280;6334;48.696;2.114;2023-03-18T01:16:07;99246.77;;;10.09;80.93
12536;BME280;6334;48.696;2.114;2023-03-18T01:18:38;99240.36;;;10.09;80.49
12536;BME280;6334;48.696;2.114;2023-03-18T01:21:09;99241.78;;;10.16;80.39
12536;BME280;6334;48.696;2.114;2023-03-18T01:23:39;99239.36;;;10.35;79.15
12536;BME280;6334;48.696;2.114;2023-03-18T01:26:09;99243.30;;;10.51;78.49
12536;BME280;6334;48.696;2.114;2023-03-18T01:28:40;99238.09;;;10.36;78.79
12536;BME280;6334;48.696;2.114;2023-03-18T01:31:10;99244.77;;;10.20;79.49
12536;BME280;6334;48.696;2.114;2023-03-18T01:33:41;99242.14;;;10.38;79.14
12536;BME280;6334;48.696;2.114;2023-03-18T01:36:11;99239.06;;;10.00;80.88
12536;BME280;6334;48.696;2.114;2023-03-18T01:38:42;99232.50;;;10.07;80.39
12536;BME280;6334;48.696;2.114;2023-03-18T01:41:12;99236.78;;;10.24;79.04
12536;BME280;6334;48.696;2.114;2023-03-18T01:43:43;99235.86;;;9.95;80.42
12536;BME280;6334;48.696;2.114;2023-03-18T01:46:36;99238.06;;;9.78;80.89
12536;BME280;6334;48.696;2.114;2023-03-18T01:49:09;99234.16;;;10.00;80.20
12536;BME280;6334;48.696;2.114;2023-03-18T01:51:34;99228.41;;;10.29;79.42
12536;BME280;6334;48.696;2.114;2023-03-18T01:54:05;99218.55;;;10.13;79.41
12536;BME280;6334;48.696;2.114;2023-03-18T01:56:35;99217.77;;;9.86;79.97
12536;BME280;6334;48.696;2.114;2023-03-18T01:59:06;99218.80;;;9.89;80.23
12536;BME280;6334;48.696;2.114;2023-03-18T02:04:26;99219.34;;;9.71;81.32
12536;BME280;6334;48.696;2.114;2023-03-18T02:06:57;99224.44;;;9.78;81.18
12536;BME280;6334;48.696;2.114;2023-03-18T02:09:27;99225.09;;;9.93;80.35
12536;BME280;6334;48.696;2.114;2023-03-18T02:11:57;99227.49;;;9.70;81.22
12536;BME280;6334;48.696;2.114;2023-03-18T02:14:28;99223.66;;;9.87;81.55
12536;BME280;6334;48.696;2.114;2023-03-18T02:17:12;99222.16;;;10.01;81.09
12536;BME280;6334;48.696;2.114;2023-03-18T02:22:45;99220.19;;;10.15;79.87
12536;BME280;6334;48.696;2.114;2023-03-18T02:25:39;99215.57;;;10.09;79.61
12536;BME280;6334;48.696;2.114;2023-03-18T02:28:08;99222.13;;;9.80;81.46
12536;BME280;6334;48.696;2.114;2023-03-18T02:30:47;99232.95;;;9.84;81.63
12536;BME280;6334;48.696;2.114;2023-03-18T02:33:15;99230.98;;;10.04;80.50
12536;BME280;6334;48.696;2.114;2023-03-18T02:35:45;99231.08;;;9.82;81.58
12536;BME280;6334;48.696;2.114;2023-03-18T02:38:15;99234.06;;;9.92;81.32
12536;BME280;6334;48.696;2.114;2023-03-18T02:40:47;99227.17;;;10.15;80.13
12536;BME280;6334;48.696;2.114;2023-03-18T02:48:28;99228.81;;;10.27;79.62
12536;BME280;6334;48.696;2.114;2023-03-18T02:50:57;99230.13;;;9.91;80.90
12536;BME280;6334;48.696;2.114;2023-03-18T02:53:28;99228.63;;;10.06;80.56
12536;BME280;6334;48.696;2.114;2023-03-18T02:55:58;99230.39;;;10.30;80.90
12536;BME280;6334;48.696;2.114;2023-03-18T02:58:30;99228.69;;;10.03;80.21
12536;BME280;6334;48.696;2.114;2023-03-18T03:01:01;99234.39;;;9.78;81.84
12536;BME280;6334;48.696;2.114;2023-03-18T03:03:32;99234.19;;;10.36;79.93
12536;BME280;6334;48.696;2.114;2023-03-18T03:06:02;99232.55;;;10.45;79.76
12536;BME280;6334;48.696;2.114;2023-03-18T03:08:32;99235.22;;;9.93;81.57
12536;BME280;6334;48.696;2.114;2023-03-18T03:11:03;99207.27;;;9.99;80.37
12536;BME280;6334;48.696;2.114;2023-03-18T03:13:33;99240.10;;;10.14;80.22
12536;BME280;6334;48.696;2.114;2023-03-18T03:16:04;99246.73;;;10.39;79.57
12536;BME280;6334;48.696;2.114;2023-03-18T03:18:34;99245.73;;;10.44;79.45
12536;BME280;6334;48.696;2.114;2023-03-18T03:21:05;99245.41;;;10.39;79.40
12536;BME280;6334;48.696;2.114;2023-03-18T03:23:35;99247.61;;;10.26;80.02
12536;BME280;6334;48.696;2.114;2023-03-18T03:26:06;99253.49;;;10.05;81.43
12536;BME280;6334;48.696;2.114;2023-03-18T03:28:36;99252.34;;;10.42;79.15
12536;BME280;6334;48.696;2.114;2023-03-18T03:31:08;99256.17;;;10.22;80.97
12536;BME280;6334;48.696;2.114;2023-03-18T03:33:39;99256.55;;;10.54;79.51
12536;BME280;6334;48.696;2.114;2023-03-18T03:36:10;99255.16;;;10.20;80.68
12536;BME280;6334;48.696;2.114;2023-03-18T03:38:39;99250.52;;;10.22;80.43
12536;BME280;6334;48.696;2.114;2023-03-18T03:41:10;99255.34;;;10.01;81.73
12536;BME280;6334;48.696;2.114;2023-03-18T03:43:40;99255.53;;;10.07;81.39
12536;BME280;6334;48.696;2.114;2023-03-18T03:46:11;99254.36;;;10.08;82.22
12536;BME280;6334;48.696;2.114;2023-03-18T03:48:41;99258.08;;;10.34;81.46
12536;BME280;6334;48.696;2.114;2023-03-18T03:51:12;99256.39;;;10.33;80.77
12536;BME280;6334;48.696;2.114;2023-03-18T03:53:42;99253.31;;;10.44;80.72
12536;BME280;6334;48.696;2.114;2023-03-18T03:56:12;99249.69;;;10.55;79.99
12536;BME280;6334;48.696;2.114;2023-03-18T03:58:43;99251.06;;;10.06;82.49
12536;BME280;6334;48.696;2.114;2023-03-18T04:01:13;99251.92;;;10.42;81.46
12536;BME280;6334;48.696;2.114;2023-03-18T04:03:44;99250.02;;;10.45;81.93
12536;BME280;6334;48.696;2.114;2023-03-18T04:06:14;99247.33;;;10.36;81.45
12536;BME280;6334;48.696;2.114;2023-03-18T04:08:45;99249.67;;;10.23;81.90
12536;BME280;6334;48.696;2.114;2023-03-18T04:11:15;99256.56;;;10.32;82.16
12536;BME280;6334;48.696;2.114;2023-03-18T04:13:46;99252.44;;;10.37;81.56
12536;BME280;6334;48.696;2.114;2023-03-18T04:16:16;99254.77;;;10.52;82.34
12536;BME280;6334;48.696;2.114;2023-03-18T04:18:46;99254.77;;;10.59;81.59
12536;BME280;6334;48.696;2.114;2023-03-18T04:21:17;99256.56;;;10.53;81.67
12536;BME280;6334;48.696;2.114;2023-03-18T04:23:47;99252.41;;;10.36;82.35
12536;BME280;6334;48.696;2.114;2023-03-18T04:26:18;99258.50;;;10.59;80.45
12536;BME280;6334;48.696;2.114;2023-03-18T04:28:48;99239.39;;;10.54;80.08
12536;BME280;6334;48.696;2.114;2023-03-18T04:31:22;99264.14;;;10.46;80.96
12536;BME280;6334;48.696;2.114;2023-03-18T04:33:52;99262.86;;;10.48;80.84
12536;BME280;6334;48.696;2.114;2023-03-18T04:36:22;99269.08;;;10.25;82.68
12536;BME280;6334;48.696;2.114;2023-03-18T04:38:53;99271.88;;;10.69;80.66
12536;BME280;6334;48.696;2.114;2023-03-18T04:41:25;99263.03;;;10.51;81.59
12536;BME280;6334;48.696;2.114;2023-03-18T04:43:55;99261.68;;;10.22;82.52
12536;BME280;6334;48.696;2.114;2023-03-18T04:46:26;99260.70;;;10.47;81.46
12536;BME280;6334;48.696;2.114;2023-03-18T04:48:56;99256.98;;;10.45;81.86
12536;BME280;6334;48.696;2.114;2023-03-18T04:51:27;99258.91;;;10.45;82.02
12536;BME280;6334;48.696;2.114;2023-03-18T04:53:57;99264.72;;;10.53;81.38
12536;BME280;6334;48.696;2.114;2023-03-18T04:56:27;99263.55;;;10.50;80.90
12536;BME280;6334;48.696;2.114;2023-03-18T04:58:58;99258.98;;;10.30;82.04
12536;BME280;6334;48.696;2.114;2023-03-18T05:01:28;99258.85;;;10.47;80.95
12536;BME280;6334;48.696;2.114;2023-03-18T05:03:59;99256.66;;;10.30;81.68
12536;BME280;6334;48.696;2.114;2023-03-18T05:06:29;99253.80;;;10.36;81.16
12536;BME280;6334;48.696;2.114;2023-03-18T05:09:00;99249.55;;;10.28;81.12
12536;BME280;6334;48.696;2.114;2023-03-18T05:11:30;99256.09;;;10.45;80.51
12536;BME280;6334;48.696;2.114;2023-03-18T05:14:01;99249.53;;;10.15;81.60
12536;BME280;6334;48.696;2.114;2023-03-18T05:16:32;99247.35;;;10.04;81.54
12536;BME280;6334;48.696;2.114;2023-03-18T05:19:03;99246.82;;;10.06;80.91
12536;BME280;6334;48.696;2.114;2023-03-18T05:21:34;99252.02;;;10.19;81.23
12536;BME280;6334;48.696;2.114;2023-03-18T05:24:04;99254.95;;;10.10;81.53
12536;BME280;6334;48.696;2.114;2023-03-18T05:26:34;99256.58;;;10.11;81.19
12536;BME280;6334;48.696;2.114;2023-03-18T05:29:05;99253.11;;;10.04;81.08
12536;BME280;6334;48.696;2.114;2023-03-18T05:31:35;99249.92;;;10.15;80.52
12536;BME280;6334;48.696;2.114;2023-03-18T05:34:06;99247.16;;;9.99;81.37
12536;BME280;6334;48.696;2.114;2023-03-18T05:36:36;99243.45;;;10.08;81.15
12536;BME280;6334;48.696;2.114;2023-03-18T05:39:07;99247.16;;;10.02;81.47
12536;BME280;6334;48.696;2.114;2023-03-18T05:41:37;99248.41;;;9.94;82.05
12536;BME280;6334;48.696;2.114;2023-03-18T05:44:07;99252.22;;;10.14;80.67
12536;BME280;6334;48.696;2.114;2023-03-18T05:46:39;99250.55;;;10.02;81.18
12536;BME280;6334;48.696;2.114;2023-03-18T05:49:10;99252.50;;;10.01;81.15
12536;BME280;6334;48.696;2.114;2023-03-18T05:51:40;99252.63;;;9.80;81.61
12536;BME280;6334;48.696;2.114;2023-03-18T05:54:11;99252.22;;;9.94;81.20
12536;BME280;6334;48.696;2.114;2023-03-18T05:56:42;99248.34;;;9.75;82.17
12536;BME280;6334;48.696;2.114;2023-03-18T05:59:13;99243.92;;;9.72;82.03
12536;BME280;6334;48.696;2.114;2023-03-18T06:01:43;99252.98;;;9.98;80.86
12536;BME280;6334;48.696;2.114;2023-03-18T06:04:14;99243.15;;;9.76;82.14
12536;BME280;6334;48.696;2.114;2023-03-18T06:06:44;99250.31;;;9.95;81.42
12536;BME280;6334;48.696;2.114;2023-03-18T06:09:15;99251.47;;;9.84;82.50
12536;BME280;6334;48.696;2.114;2023-03-18T06:11:45;99253.06;;;9.83;82.47
12536;BME280;6334;48.696;2.114;2023-03-18T06:14:15;99253.58;;;9.78;82.80
12536;BME280;6334;48.696;2.114;2023-03-18T06:16:46;99244.64;;;9.76;81.99
12536;BME280;6334;48.696;2.114;2023-03-18T06:19:16;99259.39;;;9.90;81.84
12536;BME280;6334;48.696;2.114;2023-03-18T06:21:48;99260.42;;;9.88;81.79
12536;BME280;6334;48.696;2.114;2023-03-18T06:24:18;99261.86;;;10.13;81.07
12536;BME280;6334;48.696;2.114;2023-03-18T06:26:49;99263.15;;;9.81;81.33
12536;BME280;6334;48.696;2.114;2023-03-18T06:29:20;99268.02;;;9.94;81.34
12536;BME280;6334;48.696;2.114;2023-03-18T06:31:51;99275.59;;;10.05;80.82
12536;BME280;6334;48.696;2.114;2023-03-18T06:34:21;99271.15;;;9.72;81.85
12536;BME280;6334;48.696;2.114;2023-03-18T06:36:51;99274.73;;;9.55;82.68
12536;BME280;6334;48.696;2.114;2023-03-18T06:39:22;99266.72;;;9.81;81.38
12536;BME280;6334;48.696;2.114;2023-03-18T06:41:53;99268.08;;;9.61;82.70
12536;BME280;6334;48.696;2.114;2023-03-18T06:44:23;99269.61;;;9.74;82.26
12536;BME280;6334;48.696;2.114;2023-03-18T06:46:53;99269.44;;;9.82;81.16
12536;BME280;6334;48.696;2.114;2023-03-18T06:49:24;99269.94;;;9.90;81.42
12536;BME280;6334;48.696;2.114;2023-03-18T06:51:55;99272.33;;;9.79;82.71
12536;BME280;6334;48.696;2.114;2023-03-18T06:54:26;99272.75;;;9.91;81.73
12536;BME280;6334;48.696;2.114;2023-03-18T06:56:56;99277.25;;;9.79;82.84
12536;BME280;6334;48.696;2.114;2023-03-18T06:59:27;99271.87;;;9.54;83.67
12536;BME280;6334;48.696;2.114;2023-03-18T07:01:57;99275.51;;;10.51;82.09
12536;BME280;6334;48.696;2.114;2023-03-18T07:04:28;99272.83;;;10.55;80.71
12536;BME280;6334;48.696;2.114;2023-03-18T07:06:58;99276.86;;;10.04;81.18
12536;BME280;6334;48.696;2.114;2023-03-18T07:09:29;99276.67;;;10.01;81.19
12536;BME280;6334;48.696;2.114;2023-03-18T07:11:59;99282.47;;;9.66;82.67
12536;BME280;6334;48.696;2.114;2023-03-18T07:14:30;99283.34;;;9.86;82.66
12536;BME280;6334;48.696;2.114;2023-03-18T07:17:00;99282.98;;;9.95;82.00
12536;BME280;6334;48.696;2.114;2023-03-18T07:19:30;99286.98;;;10.09;81.63
12536;BME280;6334;48.696;2.114;2023-03-18T07:22:01;99282.13;;;9.71;82.92
12536;BME280;6334;48.696;2.114;2023-03-18T07:24:31;99281.30;;;9.84;82.98
12536;BME280;6334;48.696;2.114;2023-03-18T07:27:02;99285.02;;;9.80;82.89
12536;BME280;6334;48.696;2.114;2023-03-18T07:29:32;99289.23;;;9.97;82.44
12536;BME280;6334;48.696;2.114;2023-03-18T07:32:03;99287.98;;;10.16;82.15
12536;BME280;6334;48.696;2.114;2023-03-18T07:34:33;99284.52;;;9.80;83.89
12536;BME280;6334;48.696;2.114;2023-03-18T07:37:04;99287.24;;;10.12;82.59
12536;BME280;6334;48.696;2.114;2023-03-18T07:39:34;99260.56;;;9.85;83.28
12536;BME280;6334;48.696;2.114;2023-03-18T07:42:04;99291.53;;;10.24;82.30
12536;BME280;6334;48.696;2.114;2023-03-18T07:44:35;99285.91;;;10.20;83.26
12536;BME280;6334;48.696;2.114;2023-03-18T07:47:05;99284.09;;;10.39;81.91
12536;BME280;6334;48.696;2.114;2023-03-18T07:49:36;99284.87;;;10.25;82.98
12536;BME280;6334;48.696;2.114;2023-03-18T07:52:07;99286.92;;;10.31;82.50
12536;BME280;6334;48.696;2.114;2023-03-18T07:54:37;99293.19;;;10.21;82.88
12536;BME280;6334;48.696;2.114;2023-03-18T07:57:07;99293.20;;;10.44;82.31
12536;BME280;6334;48.696;2.114;2023-03-18T07:59:38;99289.36;;;10.45;82.97
12536;BME280;6334;48.696;2.114;2023-03-18T08:02:10;99297.39;;;10.43;82.70
12536;BME280;6334;48.696;2.114;2023-03-18T08:04:39;99301.38;;;10.47;83.09
12536;BME280;6334;48.696;2.114;2023-03-18T08:07:09;99301.50;;;10.66;82.14
12536;BME280;6334;48.696;2.114;2023-03-18T08:09:39;99297.77;;;10.52;82.42
12536;BME280;6334;48.696;2.114;2023-03-18T08:12:10;99306.77;;;10.88;81.71
12536;BME280;6334;48.696;2.114;2023-03-18T08:14:40;99307.33;;;10.89;81.76
12536;BME280;6334;48.696;2.114;2023-03-18T08:17:11;99308.99;;;11.00;81.80
12536;BME280;6334;48.696;2.114;2023-03-18T08:19:41;99305.77;;;10.93;81.78
12536;BME280;6334;48.696;2.114;2023-03-18T08:22:12;99301.97;;;10.97;80.96
12536;BME280;6334;48.696;2.114;2023-03-18T08:24:42;99303.59;;;10.96;81.51
12536;BME280;6334;48.696;2.114;2023-03-18T08:27:13;99292.67;;;11.03;80.80
12536;BME280;6334;48.696;2.114;2023-03-18T08:29:43;99296.48;;;10.97;81.51
12536;BME280;6334;48.696;2.114;2023-03-18T08:32:15;99296.94;;;11.15;81.57
12536;BME280;6334;48.696;2.114;2023-03-18T08:34:45;99298.12;;;11.27;80.44
12536;BME280;6334;48.696;2.114;2023-03-18T08:37:16;99300.55;;;11.36;80.31
12536;BME280;6334;48.696;2.114;2023-03-18T08:39:46;99309.14;;;11.36;80.43
12536;BME280;6334;48.696;2.114;2023-03-18T08:42:16;99308.06;;;11.45;80.23
12536;BME280;6334;48.696;2.114;2023-03-18T08:44:48;99309.92;;;11.28;80.68
12536;BME280;6334;48.696;2.114;2023-03-18T08:47:18;99309.53;;;11.40;80.95
12536;BME280;6334;48.696;2.114;2023-03-18T08:49:49;99307.62;;;11.46;80.62
12536;BME280;6334;48.696;2.114;2023-03-18T08:52:19;99310.17;;;11.59;79.89
12536;BME280;6334;48.696;2.114;2023-03-18T08:54:50;99314.27;;;11.40;80.94
12536;BME280;6334;48.696;2.114;2023-03-18T08:57:20;99309.52;;;11.61;80.43
12536;BME280;6334;48.696;2.114;2023-03-18T08:59:51;99312.80;;;11.75;79.87
12536;BME280;6334;48.696;2.114;2023-03-18T09:02:21;99311.79;;;11.58;80.52
12536;BME280;6334;48.696;2.114;2023-03-18T09:04:53;99317.65;;;11.51;79.99
12536;BME280;6334;48.696;2.114;2023-03-18T09:07:24;99318.11;;;11.76;79.91
12536;BME280;6334;48.696;2.114;2023-03-18T09:09:54;99316.06;;;11.72;79.31
12536;BME280;6334;48.696;2.114;2023-03-18T09:12:24;99312.33;;;11.77;79.29
12536;BME280;6334;48.696;2.114;2023-03-18T09:14:55;99320.17;;;11.98;78.75
12536;BME280;6334;48.696;2.114;2023-03-18T09:17:25;99309.41;;;12.02;78.87
12536;BME280;6334;48.696;2.114;2023-03-18T09:19:56;99310.84;;;12.21;78.37
12536;BME280;6334;48.696;2.114;2023-03-18T09:22:26;99310.62;;;12.14;78.85
12536;BME280;6334;48.696;2.114;2023-03-18T09:24:57;99308.55;;;11.91;78.18
12536;BME280;6334;48.696;2.114;2023-03-18T09:27:27;99303.50;;;12.23;78.15
12536;BME280;6334;48.696;2.114;2023-03-18T09:29:58;99301.52;;;12.20;78.05
12536;BME280;6334;48.696;2.114;2023-03-18T09:32:28;99304.83;;;12.18;77.18
12536;BME280;6334;48.696;2.114;2023-03-18T09:35:00;99305.28;;;12.14;77.33
12536;BME280;6334;48.696;2.114;2023-03-18T09:37:30;99304.12;;;12.38;76.54
12536;BME280;6334;48.696;2.114;2023-03-18T09:40:00;99299.16;;;12.15;77.89
12536;BME280;6334;48.696;2.114;2023-03-18T09:42:50;99304.38;;;12.19;77.48
12536;BME280;6334;48.696;2.114;2023-03-18T09:50:38;99308.20;;;12.71;75.51
12536;BME280;6334;48.696;2.114;2023-03-18T09:53:34;99311.70;;;12.66;77.25
12536;BME280;6334;48.696;2.114;2023-03-18T09:55:55;99293.58;;;12.63;76.43
12536;BME280;6334;48.696;2.114;2023-03-18T09:58:45;99317.08;;;12.41;76.31
12536;BME280;6334;48.696;2.114;2023-03-18T10:01:02;99323.09;;;12.48;75.13
12536;BME280;6334;48.696;2.114;2023-03-18T10:03:40;99314.44;;;12.31;75.59
12536;BME280;6334;48.696;2.114;2023-03-18T10:06:23;99318.43;;;12.20;75.58
12536;BME280;6334;48.696;2.114;2023-03-18T10:11:50;99324.67;;;12.13;75.55
12536;BME280;6334;48.696;2.114;2023-03-18T10:17:28;99327.86;;;12.31;75.01
12536;BME280;6334;48.696;2.114;2023-03-18T10:19:59;99327.38;;;12.30;75.85
12536;BME280;6334;48.696;2.114;2023-03-18T10:31:26;99322.03;;;12.44;73.98
12536;BME280;6334;48.696;2.114;2023-03-18T10:33:58;99318.48;;;12.51;73.54
12536;BME280;6334;48.696;2.114;2023-03-18T10:36:48;99319.02;;;12.43;72.90
12536;BME280;6334;48.696;2.114;2023-03-18T10:39:16;99319.19;;;12.68;73.17
12536;BME280;6334;48.696;2.114;2023-03-18T10:41:49;99322.80;;;12.54;74.74
12536;BME280;6334;48.696;2.114;2023-03-18T10:44:32;99324.16;;;12.77;73.48
12536;BME280;6334;48.696;2.114;2023-03-18T10:47:13;99319.20;;;12.83;72.95
12536;BME280;6334;48.696;2.114;2023-03-18T10:49:42;99319.39;;;12.80;72.92
12536;BME280;6334;48.696;2.114;2023-03-18T10:52:16;99325.09;;;12.95;72.87
12536;BME280;6334;48.696;2.114;2023-03-18T10:54:45;99321.69;;;12.87;72.04
12536;BME280;6334;48.696;2.114;2023-03-18T10:57:18;99328.52;;;12.87;72.14
12536;BME280;6334;48.696;2.114;2023-03-18T10:59:49;99330.63;;;13.17;73.07
12536;BME280;6334;48.696;2.114;2023-03-18T11:02:24;99332.49;;;13.37;73.06
12536;BME280;6334;48.696;2.114;2023-03-18T11:04:56;99336.30;;;13.49;72.35
12536;BME280;6334;48.696;2.114;2023-03-18T11:07:25;99330.70;;;13.17;72.19
12536;BME280;6334;48.696;2.114;2023-03-18T11:10:09;99332.56;;;13.32;72.00
12536;BME280;6334;48.696;2.114;2023-03-18T11:12:26;99332.23;;;13.26;71.14
12536;BME280;6334;48.696;2.114;2023-03-18T11:14:56;99330.98;;;13.51;71.94
12536;BME280;6334;48.696;2.114;2023-03-18T11:17:32;99326.38;;;13.24;71.11
12536;BME280;6334;48.696;2.114;2023-03-18T11:20:13;99333.05;;;13.49;70.93
12536;BME280;6334;48.696;2.114;2023-03-18T11:22:33;99321.03;;;13.61;71.45
12536;BME280;6334;48.696;2.114;2023-03-18T11:25:16;99331.70;;;13.73;69.96
12536;BME280;6334;48.696;2.114;2023-03-18T11:27:45;99324.11;;;13.88;70.20
12536;BME280;6334;48.696;2.114;2023-03-18T11:33:02;99324.17;;;13.85;68.37
12536;BME280;6334;48.696;2.114;2023-03-18T11:35:32;99324.06;;;13.58;70.56
12536;BME280;6334;48.696;2.114;2023-03-18T11:38:02;99324.22;;;13.74;69.44
12536;BME280;6334;48.696;2.114;2023-03-18T11:40:31;99329.92;;;13.76;69.08
12536;BME280;6334;48.696;2.114;2023-03-18T11:43:02;99321.73;;;13.62;69.31
12536;BME280;6334;48.696;2.114;2023-03-18T11:48:13;99328.11;;;13.75;69.38
12536;BME280;6334;48.696;2.114;2023-03-18T11:51:05;99315.98;;;13.64;67.37
12536;BME280;6334;48.696;2.114;2023-03-18T11:53:19;99326.52;;;14.09;68.31
12536;BME280;6334;48.696;2.114;2023-03-18T11:56:00;99323.37;;;13.79;67.21
12536;BME280;6334;48.696;2.114;2023-03-18T12:04:18;99316.79;;;13.83;66.11
12536;BME280;6334;48.696;2.114;2023-03-18T12:06:49;99319.55;;;14.03;66.60
12536;BME280;6334;48.696;2.114;2023-03-18T12:09:26;99322.20;;;13.92;65.87
12536;BME280;6334;48.696;2.114;2023-03-18T12:17:23;99323.62;;;13.93;68.03
12536;BME280;6334;48.696;2.114;2023-03-18T12:19:59;99325.21;;;13.95;68.28
12536;BME280;6334;48.696;2.114;2023-03-18T12:25:38;99315.09;;;14.04;66.83
12536;BME280;6334;48.696;2.114;2023-03-18T12:31:34;99312.23;;;13.79;67.06
12536;BME280;6334;48.696;2.114;2023-03-18T12:34:02;99310.47;;;14.13;68.31
12536;BME280;6334;48.696;2.114;2023-03-18T12:39:40;99308.45;;;13.73;67.82
12536;BME280;6334;48.696;2.114;2023-03-18T12:42:16;99304.91;;;14.06;68.95
12536;BME280;6334;48.696;2.114;2023-03-18T12:44:58;99304.05;;;14.13;67.79
12536;BME280;6334;48.696;2.114;2023-03-18T12:50:08;99314.84;;;14.08;67.68
12536;BME280;6334;48.696;2.114;2023-03-18T12:55:20;99320.42;;;13.52;71.54
12536;BME280;6334;48.696;2.114;2023-03-18T12:57:49;99319.15;;;13.75;71.84
12536;BME280;6334;48.696;2.114;2023-03-18T13:00:20;99318.70;;;13.84;71.09
12536;BME280;6334;48.696;2.114;2023-03-18T13:03:22;99330.17;;;13.57;72.10
12536;BME280;6334;48.696;2.114;2023-03-18T13:06:08;99323.91;;;13.47;72.89
12536;BME280;6334;48.696;2.114;2023-03-18T13:09:10;99329.45;;;13.58;73.42
12536;BME280;6334;48.696;2.114;2023-03-18T13:14:50;99323.59;;;13.27;75.78
12536;BME280;6334;48.696;2.114;2023-03-18T13:20:09;99321.20;;;13.39;75.19
12536;BME280;6334;48.696;2.114;2023-03-18T13:22:48;99298.05;;;13.51;74.09
12536;BME280;6334;48.696;2.114;2023-03-18T13:25:23;99315.63;;;13.80;73.96
12536;BME280;6334;48.696;2.114;2023-03-18T13:28:05;99311.50;;;13.79;72.92
12536;BME280;6334;48.696;2.114;2023-03-18T13:33:28;99314.78;;;14.09;71.79
12536;BME280;6334;48.696;2.114;2023-03-18T13:38:49;99297.63;;;14.21;70.98
12536;BME280;6334;48.696;2.114;2023-03-18T13:41:36;99300.41;;;14.29;67.64
12536;BME280;6334;48.696;2.114;2023-03-18T13:44:08;99293.91;;;14.20;67.90
12536;BME280;6334;48.696;2.114;2023-03-18T13:46:34;99293.02;;;14.43;68.39
12536;BME280;6334;48.696;2.114;2023-03-18T13:49:11;99293.38;;;14.51;67.79
12536;BME280;6334;48.696;2.114;2023-03-18T13:54:10;99284.90;;;14.49;65.67
12536;BME280;6334;48.696;2.114;2023-03-18T14:04:54;99290.33;;;14.17;66.10
12536;BME280;6334;48.696;2.114;2023-03-18T14:07:24;99289.26;;;14.64;66.16
12536;BME280;6334;48.696;2.114;2023-03-18T14:17:44;99276.66;;;13.96;65.67
12536;BME280;6334;48.696;2.114;2023-03-18T14:20:20;99278.59;;;13.85;65.96
12536;BME280;6334;48.696;2.114;2023-03-18T14:22:52;99278.90;;;13.79;66.01
12536;BME280;6334;48.696;2.114;2023-03-18T14:25:33;99273.75;;;13.73;65.02
12536;BME280;6334;48.696;2.114;2023-03-18T14:35:55;99284.08;;;13.73;68.38
12536;BME280;6334;48.696;2.114;2023-03-18T14:38:26;99275.73;;;13.74;67.57
12536;BME280;6334;48.696;2.114;2023-03-18T14:40:54;99271.03;;;13.73;67.32
12536;BME280;6334;48.696;2.114;2023-03-18T14:43:26;99268.86;;;14.03;67.63
12536;BME280;6334;48.696;2.114;2023-03-18T14:46:04;99268.39;;;14.31;68.34
12536;BME280;6334;48.696;2.114;2023-03-18T14:48:32;99266.24;;;14.26;66.64
12536;BME280;6334;48.696;2.114;2023-03-18T14:51:12;99260.61;;;14.28;66.00
12536;BME280;6334;48.696;2.114;2023-03-18T14:53:41;99257.84;;;14.14;66.75
12536;BME280;6334;48.696;2.114;2023-03-18T14:56:16;99259.59;;;14.08;65.86
12536;BME280;6334;48.696;2.114;2023-03-18T14:58:46;99255.34;;;14.20;66.40
12536;BME280;6334;48.696;2.114;2023-03-18T15:01:16;99249.88;;;14.01;67.19
12536;BME280;6334;48.696;2.114;2023-03-18T15:03:46;99254.13;;;14.10;66.36
12536;BME280;6334;48.696;2.114;2023-03-18T15:06:21;99248.63;;;14.38;66.34
12536;BME280;6334;48.696;2.114;2023-03-18T15:09:03;99248.84;;;14.38;65.66
12536;BME280;6334;48.696;2.114;2023-03-18T15:11:40;99247.84;;;14.54;66.02
12536;BME280;6334;48.696;2.114;2023-03-18T15:14:11;99248.65;;;14.76;66.19
12536;BME280;6334;48.696;2.114;2023-03-18T15:16:47;99248.02;;;14.56;65.27